createdAt,value
2018-07-13T00:00:38.097Z,48.77
2018-07-13T00:03:07.505Z,54.90
2018-07-13T00:05:36.849Z,52.80
2018-07-13T00:08:06.339Z,51.73
2018-07-13T00:10:35.293Z,56.60
2018-07-13T00:13:04.482Z,68.37
2018-07-13T00:15:35.012Z,83.27
2018-07-13T00:18:04.346Z,75.37
2018-07-13T00:20:33.656Z,106.10
2018-07-13T00:23:02.594Z,209.83
2018-07-13T00:25:31.753Z,183.10
2018-07-13T00:28:01.044Z,373.07
2018-07-13T00:30:30.311Z,320.10
2018-07-13T00:32:59.665Z,1154.83
2018-07-13T00:35:28.975Z,247.00
2018-07-13T00:37:58.261Z,265.50
2018-07-13T00:40:27.579Z,278.37
2018-07-13T00:42:56.910Z,214.23
2018-07-13T00:45:26.189Z,217.07
2018-07-13T00:47:55.493Z,739.13
2018-07-13T00:50:24.779Z,621.87
2018-07-13T00:52:54.094Z,430.63
2018-07-13T00:55:23.496Z,210.20
2018-07-13T00:57:52.738Z,124.23
2018-07-13T01:00:31.117Z,155.47
2018-07-13T01:03:01.820Z,126.87
2018-07-13T01:05:31.482Z,127.43
2018-07-13T01:08:00.787Z,106.17
2018-07-13T01:10:30.182Z,130.70
2018-07-13T01:12:59.491Z,118.73
2018-07-13T01:15:28.939Z,155.10
2018-07-13T01:17:58.320Z,233.33
2018-07-13T01:20:27.656Z,308.03
2018-07-13T01:22:56.947Z,127.03
2018-07-13T01:25:26.247Z,130.63
2018-07-13T01:27:55.532Z,130.77
2018-07-13T01:30:24.826Z,266.77
2018-07-13T01:32:54.147Z,190.00
2018-07-13T01:35:23.490Z,157.50
2018-07-13T01:37:52.796Z,168.30
2018-07-13T01:40:22.100Z,211.00
2018-07-13T01:42:51.559Z,860.67
2018-07-13T01:45:20.878Z,437.13
2018-07-13T01:47:50.184Z,205.40
2018-07-13T01:50:19.506Z,208.57
2018-07-13T01:52:48.833Z,256.27
2018-07-13T01:55:18.162Z,135.90
2018-07-13T01:57:47.463Z,120.40
2018-07-13T02:00:16.753Z,468.87
2018-07-13T02:02:46.030Z,110.23
2018-07-13T02:05:15.384Z,106.57
2018-07-13T02:07:44.706Z,95.57
2018-07-13T02:10:13.678Z,103.10
2018-07-13T02:12:42.848Z,92.97
2018-07-13T02:15:12.124Z,84.33
2018-07-13T02:17:41.377Z,86.53
2018-07-13T02:20:10.676Z,76.73
2018-07-13T02:22:39.988Z,82.87
2018-07-13T02:25:09.263Z,86.27
2018-07-13T02:27:38.785Z,76.10
2018-07-13T02:30:08.095Z,71.33
2018-07-13T02:32:37.446Z,100.63
2018-07-13T02:35:06.839Z,193.07
2018-07-13T02:37:36.243Z,99.00
2018-07-13T02:40:05.819Z,92.90
2018-07-13T02:42:35.723Z,94.73
2018-07-13T02:45:05.328Z,88.70
2018-07-13T02:47:34.811Z,98.67
2018-07-13T02:50:04.520Z,171.60
2018-07-13T02:52:33.895Z,93.13
2018-07-13T02:55:03.865Z,96.63
2018-07-13T02:57:33.161Z,167.70
2018-07-13T03:00:02.574Z,205.63
2018-07-13T03:02:32.071Z,125.27
2018-07-13T03:05:01.464Z,450.90
2018-07-13T03:07:30.776Z,619.80
2018-07-13T03:10:00.167Z,148.93
2018-07-13T03:12:29.693Z,96.23
2018-07-13T03:14:59.133Z,132.30
2018-07-13T03:17:28.485Z,145.03
2018-07-13T03:19:57.849Z,227.20
2018-07-13T03:22:27.153Z,200.07
2018-07-13T03:24:56.504Z,236.43
2018-07-13T03:27:25.813Z,144.13
2018-07-13T03:29:55.130Z,152.97
2018-07-13T03:32:24.430Z,171.80
2018-07-13T03:34:54.522Z,104.77
2018-07-13T03:37:23.799Z,124.63
2018-07-13T03:39:53.127Z,418.23
2018-07-13T03:42:22.401Z,525.83
2018-07-13T03:44:51.718Z,459.00
2018-07-13T03:47:20.994Z,810.33
2018-07-13T03:49:50.356Z,441.90
2018-07-13T03:52:19.674Z,919.27
2018-07-13T03:54:48.981Z,857.67
2018-07-13T03:57:18.298Z,494.13
2018-07-13T03:59:47.579Z,250.27
2018-07-13T04:02:16.884Z,658.23
2018-07-13T04:04:46.261Z,830.87
2018-07-13T04:07:15.658Z,709.07
2018-07-13T04:09:44.979Z,390.53
2018-07-13T04:12:14.390Z,491.67
2018-07-13T04:14:43.840Z,524.10
2018-07-13T04:17:13.211Z,416.00
2018-07-13T04:19:42.570Z,148.70
2018-07-13T04:22:11.936Z,267.60
2018-07-13T04:24:40.945Z,204.07
2018-07-13T04:27:10.473Z,100.73
2018-07-13T04:29:40.047Z,97.33
2018-07-13T04:32:09.368Z,79.00
2018-07-13T04:34:38.702Z,75.10
2018-07-13T04:37:08.015Z,72.13
2018-07-13T04:39:37.344Z,72.53
2018-07-13T04:42:06.844Z,65.63
2018-07-13T04:44:36.176Z,57.37
2018-07-13T04:47:05.607Z,56.13
2018-07-13T04:49:35.184Z,52.93
2018-07-13T04:52:04.710Z,47.30
2018-07-13T04:54:34.073Z,42.07
2018-07-13T04:57:03.486Z,37.03
2018-07-13T04:59:32.866Z,35.00
2018-07-13T05:02:02.323Z,29.23
2018-07-13T05:04:31.711Z,30.63
2018-07-13T05:07:01.146Z,31.20
2018-07-13T05:09:31.566Z,19.30
2018-07-13T05:12:00.936Z,23.40
2018-07-13T05:14:31.018Z,21.80
2018-07-13T05:17:00.356Z,24.60
2018-07-13T05:19:29.710Z,20.80
2018-07-13T05:21:59.377Z,29.63
2018-07-13T05:24:29.678Z,31.77
2018-07-13T05:26:59.376Z,23.37
2018-07-13T05:29:28.937Z,22.80
2018-07-13T05:31:58.380Z,26.73
2018-07-13T05:34:28.088Z,24.30
2018-07-13T05:36:57.489Z,19.57
2018-07-13T05:39:26.982Z,24.53
2018-07-13T05:41:56.488Z,25.03
2018-07-13T05:44:25.943Z,23.43
2018-07-13T05:46:55.817Z,22.13
2018-07-13T05:49:25.224Z,24.27
2018-07-13T05:51:54.916Z,20.47
2018-07-13T05:54:24.368Z,30.47
2018-07-13T05:56:53.930Z,21.50
2018-07-13T05:59:23.587Z,21.70
2018-07-13T06:01:53.041Z,18.87
2018-07-13T06:04:22.598Z,19.70
2018-07-13T06:06:52.006Z,17.67
2018-07-13T06:09:21.466Z,23.47
2018-07-13T06:11:50.964Z,17.87
2018-07-13T06:14:19.937Z,18.50
2018-07-13T06:16:49.131Z,18.37
2018-07-13T06:19:18.506Z,18.43
2018-07-13T06:21:47.853Z,20.60
2018-07-13T06:24:17.199Z,15.90
2018-07-13T06:26:46.892Z,16.13
2018-07-13T06:29:15.848Z,17.57
2018-07-13T06:31:45.114Z,17.40
2018-07-13T06:34:14.479Z,15.20
2018-07-13T06:36:44.019Z,15.43
2018-07-13T06:39:13.929Z,14.57
2018-07-13T06:41:43.316Z,17.20
2018-07-13T06:44:12.848Z,15.27
2018-07-13T06:46:45.761Z,13.57
2018-07-13T06:49:15.857Z,24.40
2018-07-13T06:51:45.302Z,13.13
2018-07-13T06:54:14.709Z,23.37
2018-07-13T06:56:44.063Z,15.73
2018-07-13T06:59:17.213Z,19.10
2018-07-13T07:01:47.576Z,14.20
2018-07-13T07:04:22.179Z,13.53
2018-07-13T07:06:52.256Z,13.87
2018-07-13T07:09:22.251Z,18.13
2018-07-13T07:12:38.653Z,13.63
2018-07-13T07:15:08.068Z,17.30
2018-07-13T07:17:37.551Z,12.13
2018-07-13T07:20:10.017Z,20.63
2018-07-13T07:22:39.540Z,17.70
2018-07-13T07:25:08.918Z,15.03
2018-07-13T07:27:38.413Z,17.20
2018-07-13T07:30:07.409Z,21.03
2018-07-13T07:32:36.891Z,14.60
2018-07-13T07:35:06.844Z,12.47
2018-07-13T07:37:36.890Z,12.93
2018-07-13T07:40:06.430Z,15.07
2018-07-13T07:42:35.970Z,11.23
2018-07-13T07:45:06.215Z,17.63
2018-07-13T07:47:36.150Z,11.07
2018-07-13T07:50:05.185Z,12.07
2018-07-13T07:52:34.999Z,12.57
2018-07-13T07:55:04.396Z,11.70
2018-07-13T07:57:33.854Z,11.13
2018-07-13T08:00:04.104Z,31.93
2018-07-13T08:02:33.457Z,13.73
2018-07-13T08:05:02.910Z,12.70
2018-07-13T08:07:31.873Z,15.30
2018-07-13T08:10:01.048Z,15.00
2018-07-13T08:12:30.605Z,11.87
2018-07-13T08:14:59.592Z,9.90
2018-07-13T08:17:28.860Z,12.07
2018-07-13T08:19:58.355Z,10.00
2018-07-13T08:22:41.344Z,12.10
2018-07-13T08:25:14.686Z,10.43
2018-07-13T08:27:46.187Z,14.90
2018-07-13T08:30:18.408Z,10.57
2018-07-13T08:32:49.354Z,12.17
2018-07-13T08:35:19.175Z,11.23
2018-07-13T08:37:48.588Z,8.30
2018-07-13T08:40:17.938Z,9.70
2018-07-13T08:42:47.267Z,16.07
2018-07-13T08:45:17.260Z,18.30
2018-07-13T08:47:46.740Z,8.40
2018-07-13T08:50:16.120Z,10.40
2018-07-13T08:52:45.223Z,8.57
2018-07-13T08:55:16.155Z,8.17
2018-07-13T08:57:47.787Z,7.80
2018-07-13T09:00:17.478Z,10.37
2018-07-13T09:02:47.090Z,10.57
2018-07-13T09:05:16.608Z,9.33
2018-07-13T09:07:46.081Z,6.67
2018-07-13T09:10:15.636Z,7.50
2018-07-13T09:12:45.110Z,9.10
2018-07-13T09:15:14.913Z,8.40
2018-07-13T09:17:44.295Z,5.57
2018-07-13T09:20:14.363Z,9.70
2018-07-13T09:22:43.830Z,9.77
2018-07-13T09:25:13.249Z,8.67
2018-07-13T09:27:42.686Z,6.93
2018-07-13T09:30:12.762Z,8.93
2018-07-13T09:32:42.343Z,10.53
2018-07-13T09:35:12.081Z,12.90
2018-07-13T09:37:41.658Z,7.10
2018-07-13T09:40:11.134Z,8.63
2018-07-13T09:42:40.973Z,10.53
2018-07-13T09:45:10.437Z,9.27
2018-07-13T09:47:39.993Z,6.40
2018-07-13T09:50:11.312Z,7.83
2018-07-13T09:52:40.821Z,5.90
2018-07-13T09:55:10.313Z,9.93
2018-07-13T09:57:39.922Z,7.93
2018-07-13T10:00:10.315Z,6.23
2018-07-13T10:02:39.727Z,4.20
2018-07-13T10:05:09.418Z,6.33
2018-07-13T10:07:39.813Z,4.57
2018-07-13T10:10:11.574Z,3.53
2018-07-13T10:12:41.274Z,9.57
2018-07-13T10:15:10.655Z,5.30
2018-07-13T10:17:40.046Z,4.90
2018-07-13T10:20:10.337Z,6.90
2018-07-13T10:22:39.524Z,4.53
2018-07-13T10:25:10.360Z,6.13
2018-07-13T10:27:42.692Z,7.03
2018-07-13T10:30:13.400Z,7.83
2018-07-13T10:32:44.955Z,6.57
2018-07-13T10:35:13.994Z,5.80
2018-07-13T10:37:43.682Z,10.13
2018-07-13T10:40:13.061Z,7.50
2018-07-13T10:42:42.501Z,11.67
2018-07-13T10:45:12.036Z,3.87
2018-07-13T10:47:41.881Z,10.23
2018-07-13T10:50:11.417Z,5.60
2018-07-13T10:52:41.027Z,8.00
2018-07-13T10:55:10.365Z,8.37
2018-07-13T10:57:40.363Z,4.00
2018-07-13T11:00:09.754Z,5.37
2018-07-13T11:02:39.580Z,3.93
2018-07-13T11:05:09.232Z,5.67
2018-07-13T11:07:41.244Z,6.00
2018-07-13T11:10:11.212Z,7.10
2018-07-13T11:12:40.495Z,8.87
2018-07-13T11:15:13.332Z,9.60
2018-07-13T11:17:45.209Z,7.20
2018-07-13T11:20:16.307Z,6.30
2018-07-13T11:22:45.877Z,10.50
2018-07-13T11:25:15.590Z,4.33
2018-07-13T11:27:46.827Z,4.80
2018-07-13T11:30:16.516Z,7.53
2018-07-13T11:32:46.693Z,11.10
2018-07-13T11:35:15.704Z,6.13
2018-07-13T11:37:44.940Z,4.23
2018-07-13T11:40:14.291Z,6.37
2018-07-13T11:42:43.705Z,6.60
2018-07-13T11:45:14.069Z,5.00
2018-07-13T11:47:43.369Z,3.10
2018-07-13T11:50:12.967Z,5.37
2018-07-13T11:52:42.414Z,2.97
2018-07-13T11:55:11.853Z,3.60
2018-07-13T11:57:41.206Z,8.67
2018-07-13T12:00:10.773Z,4.53
2018-07-13T12:02:41.154Z,4.60
2018-07-13T12:05:10.173Z,3.80
2018-07-13T12:07:42.466Z,11.33
2018-07-13T12:10:11.642Z,3.03
2018-07-13T12:12:42.227Z,2.60
2018-07-13T12:15:11.677Z,6.13
2018-07-13T12:17:41.057Z,4.40
2018-07-13T12:20:10.357Z,2.50
2018-07-13T12:22:40.500Z,2.60
2018-07-13T12:25:09.922Z,3.73
2018-07-13T12:27:39.319Z,2.10
2018-07-13T12:30:08.928Z,2.13
2018-07-13T12:32:38.356Z,2.70
2018-07-13T12:35:08.457Z,2.33
2018-07-13T12:37:38.132Z,4.23
2018-07-13T12:40:07.581Z,12.63
2018-07-13T12:42:37.031Z,6.00
2018-07-13T12:45:07.010Z,2.63
2018-07-13T12:47:36.353Z,2.10
2018-07-13T12:50:05.825Z,2.87
2018-07-13T12:52:35.213Z,1.80
2018-07-13T12:55:04.604Z,2.67
2018-07-13T12:57:33.973Z,5.00
2018-07-13T13:00:03.388Z,1.83
2018-07-13T13:02:33.187Z,2.50
2018-07-13T13:05:02.253Z,1.80
2018-07-13T13:07:31.315Z,1.93
2018-07-13T13:10:00.348Z,1.67
2018-07-13T13:12:29.424Z,2.73
2018-07-13T13:14:58.454Z,5.43
2018-07-13T13:17:27.516Z,3.00
2018-07-13T13:19:56.770Z,2.43
2018-07-13T13:22:25.872Z,4.03
2018-07-13T13:24:54.925Z,3.70
2018-07-13T13:27:24.035Z,1.93
2018-07-13T13:29:53.105Z,4.00
2018-07-13T13:32:22.213Z,3.77
2018-07-13T13:34:51.348Z,4.23
2018-07-13T13:37:20.412Z,2.27
2018-07-13T13:39:49.720Z,2.23
2018-07-13T13:42:18.788Z,2.30
2018-07-13T13:44:47.902Z,2.10
2018-07-13T13:47:17.135Z,5.00
2018-07-13T13:49:46.224Z,2.27
2018-07-13T13:52:15.309Z,4.40
2018-07-13T13:54:44.505Z,2.50
2018-07-13T13:57:13.505Z,1.87
2018-07-13T13:59:42.553Z,4.13
2018-07-13T14:02:11.649Z,1.97
2018-07-13T14:04:40.768Z,3.20
2018-07-13T14:07:09.905Z,1.73
2018-07-13T14:09:38.928Z,2.30
2018-07-13T14:12:08.102Z,2.80
2018-07-13T14:14:36.873Z,5.20
2018-07-13T14:17:05.715Z,8.03
2018-07-13T14:19:34.806Z,3.97
2018-07-13T14:22:03.609Z,3.70
2018-07-13T14:24:32.540Z,3.40
2018-07-13T14:27:01.725Z,3.40
2018-07-13T14:29:30.917Z,2.97
2018-07-13T14:32:00.022Z,7.00
2018-07-13T14:34:29.147Z,3.17
2018-07-13T14:36:58.126Z,2.90
2018-07-13T14:39:26.901Z,4.87
2018-07-13T14:41:55.819Z,5.13
2018-07-13T14:44:24.592Z,3.10
2018-07-13T14:46:53.578Z,3.93
2018-07-13T14:49:22.690Z,3.00
2018-07-13T14:51:51.729Z,5.10
2018-07-13T14:54:20.766Z,3.93
2018-07-13T14:56:50.192Z,3.33
2018-07-13T14:59:19.245Z,4.10
2018-07-13T15:01:48.380Z,10.20
2018-07-13T15:04:17.436Z,3.07
2018-07-13T15:06:46.583Z,4.30
2018-07-13T15:09:15.814Z,4.23
2018-07-13T15:11:45.061Z,4.50
2018-07-13T15:14:14.083Z,5.03
2018-07-13T15:16:42.974Z,6.53
2018-07-13T15:19:12.031Z,3.60
2018-07-13T15:21:41.105Z,9.37
2018-07-13T15:24:10.718Z,3.37
2018-07-13T15:26:39.528Z,4.80
2018-07-13T15:29:08.562Z,3.93
2018-07-13T15:31:37.714Z,4.27
2018-07-13T15:34:06.781Z,5.67
2018-07-13T15:36:35.801Z,5.23
2018-07-13T15:39:05.909Z,3.27
2018-07-13T15:41:34.990Z,7.77
2018-07-13T15:44:04.264Z,4.00
2018-07-13T15:46:33.264Z,4.80
2018-07-13T15:49:02.306Z,9.90
2018-07-13T15:51:32.344Z,5.00
2018-07-13T15:54:01.440Z,3.17
2018-07-13T15:56:30.538Z,6.17
2018-07-13T15:59:00.268Z,5.60
2018-07-13T16:01:29.258Z,5.47
2018-07-13T16:03:58.338Z,4.93
2018-07-13T16:06:27.357Z,3.33
2018-07-13T16:08:56.359Z,4.60
2018-07-13T16:11:26.774Z,4.03
2018-07-13T16:13:56.214Z,26.63
2018-07-13T16:16:25.815Z,2.87
2018-07-13T16:18:55.253Z,3.27
2018-07-13T16:21:24.192Z,4.50
2018-07-13T16:23:53.343Z,6.50
2018-07-13T16:26:22.282Z,4.30
2018-07-13T16:28:51.548Z,4.90
2018-07-13T16:31:20.903Z,3.73
2018-07-13T16:33:50.371Z,4.50
2018-07-13T16:36:19.648Z,2.77
2018-07-13T16:38:49.022Z,5.67
2018-07-13T16:41:18.484Z,5.97
2018-07-13T16:43:48.677Z,4.30
2018-07-13T16:46:17.681Z,6.23
2018-07-13T16:48:46.975Z,4.33
2018-07-13T16:51:16.424Z,4.90
2018-07-13T16:53:45.838Z,4.40
2018-07-13T16:56:15.980Z,8.27
2018-07-13T16:58:45.315Z,7.73
2018-07-13T17:01:14.703Z,5.13
2018-07-13T17:03:43.973Z,3.60
2018-07-13T17:06:13.449Z,5.80
2018-07-13T17:08:43.048Z,4.27
2018-07-13T17:11:12.419Z,4.13
2018-07-13T17:13:41.440Z,3.97
2018-07-13T17:16:10.276Z,5.00
2018-07-13T17:18:39.446Z,4.87
2018-07-13T17:21:08.930Z,8.80
2018-07-13T17:23:38.305Z,3.10
2018-07-13T17:26:08.134Z,5.27
2018-07-13T17:28:37.560Z,6.87
2018-07-13T17:31:07.093Z,6.17
2018-07-13T17:33:36.411Z,4.40
2018-07-13T17:36:05.684Z,6.57
2018-07-13T17:38:35.619Z,4.10
2018-07-13T17:41:05.022Z,5.20
2018-07-13T17:43:34.435Z,7.07
2018-07-13T17:46:03.988Z,5.57
2018-07-13T17:48:33.581Z,7.80
2018-07-13T17:51:02.990Z,6.17
2018-07-13T17:53:32.603Z,11.80
2018-07-13T17:56:01.997Z,11.90
2018-07-13T17:58:31.434Z,3.93
2018-07-13T18:01:01.602Z,5.70
2018-07-13T18:03:31.042Z,4.87
2018-07-13T18:06:00.403Z,10.03
2018-07-13T18:08:30.033Z,5.83
2018-07-13T18:10:59.520Z,6.37
2018-07-13T18:13:29.155Z,7.73
2018-07-13T18:15:58.662Z,6.43
2018-07-13T18:18:28.098Z,4.23
2018-07-13T18:20:57.852Z,8.47
2018-07-13T18:23:27.199Z,7.17
2018-07-13T18:25:56.464Z,6.00
2018-07-13T18:28:25.834Z,7.70
2018-07-13T18:30:55.164Z,6.20
2018-07-13T18:33:24.593Z,5.37
2018-07-13T18:35:53.897Z,18.10
2018-07-13T18:38:23.189Z,6.70
2018-07-13T18:40:52.538Z,5.93
2018-07-13T18:43:21.958Z,12.10
2018-07-13T18:45:51.290Z,6.30
2018-07-13T18:48:20.649Z,6.40
2018-07-13T18:50:50.049Z,6.77
2018-07-13T18:53:19.294Z,5.53
2018-07-13T18:55:48.629Z,6.83
2018-07-13T18:58:18.023Z,11.60
2018-07-13T19:00:47.333Z,11.23
2018-07-13T19:03:16.626Z,6.60
2018-07-13T19:05:45.832Z,6.07
2018-07-13T19:08:15.196Z,4.47
2018-07-13T19:10:45.074Z,6.00
2018-07-13T19:13:14.721Z,10.40
2018-07-13T19:15:44.206Z,5.87
2018-07-13T19:18:13.504Z,10.93
2018-07-13T19:20:43.066Z,11.73
2018-07-13T19:23:12.459Z,6.20
2018-07-13T19:25:42.122Z,7.87
2018-07-13T19:28:11.473Z,7.23
2018-07-13T19:30:40.935Z,6.77
2018-07-13T19:33:10.285Z,6.67
2018-07-13T19:35:39.360Z,6.70
2018-07-13T19:38:08.518Z,6.87
2018-07-13T19:40:37.874Z,9.27
2018-07-13T19:43:08.043Z,6.20
2018-07-13T19:45:37.560Z,9.50
2018-07-13T19:48:07.298Z,6.00
2018-07-13T19:50:36.805Z,4.80
2018-07-13T19:53:06.579Z,8.30
2018-07-13T19:55:35.868Z,5.67
2018-07-13T19:58:05.258Z,16.30
2018-07-13T20:00:34.620Z,6.73
2018-07-13T20:03:04.135Z,5.10
2018-07-13T20:05:33.589Z,9.80
2018-07-13T20:08:03.673Z,5.37
2018-07-13T20:10:33.088Z,6.50
2018-07-13T20:13:02.947Z,7.73
2018-07-13T20:15:32.209Z,9.60
2018-07-13T20:18:04.232Z,9.30
2018-07-13T20:20:34.016Z,11.50
2018-07-13T20:23:03.685Z,7.40
2018-07-13T20:25:33.207Z,12.33
2018-07-13T20:28:03.238Z,5.90
2018-07-13T20:30:33.091Z,8.97
2018-07-13T20:33:02.530Z,7.80
2018-07-13T20:35:31.880Z,7.50
2018-07-13T20:38:01.827Z,8.93
2018-07-13T20:40:31.186Z,8.07
2018-07-13T20:43:00.773Z,9.10
2018-07-13T20:45:30.133Z,6.70
2018-07-13T20:47:59.588Z,15.73
2018-07-13T20:50:29.132Z,7.03
2018-07-13T20:52:59.006Z,9.43
2018-07-13T20:55:28.484Z,6.90
2018-07-13T20:57:58.608Z,8.93
2018-07-13T21:00:28.111Z,13.67
2018-07-13T21:02:57.541Z,11.40
2018-07-13T21:05:26.495Z,9.10
2018-07-13T21:07:55.663Z,10.07
2018-07-13T21:10:24.580Z,13.27
2018-07-13T21:12:54.023Z,9.70
2018-07-13T21:15:23.418Z,11.40
2018-07-13T21:17:53.662Z,6.80
2018-07-13T21:20:23.495Z,9.07
2018-07-13T21:22:52.941Z,8.20
2018-07-13T21:25:22.272Z,7.70
2018-07-13T21:27:51.724Z,6.90
2018-07-13T21:30:21.092Z,10.27
2018-07-13T21:32:50.458Z,8.83
2018-07-13T21:35:19.854Z,14.00
2018-07-13T21:37:49.263Z,9.57
2018-07-13T21:40:18.642Z,11.50
2018-07-13T21:42:48.203Z,13.30
2018-07-13T21:45:18.700Z,8.77
2018-07-13T21:47:47.965Z,8.43
2018-07-13T21:50:17.389Z,11.60
2018-07-13T21:52:46.801Z,10.27
2018-07-13T21:55:16.075Z,10.30
2018-07-13T21:57:45.624Z,17.37
2018-07-13T22:00:14.939Z,9.00
2018-07-13T22:02:44.502Z,13.10
2018-07-13T22:05:13.825Z,7.70
2018-07-13T22:07:43.255Z,10.50
2018-07-13T22:10:12.669Z,10.43
2018-07-13T22:12:41.678Z,9.27
2018-07-13T22:15:10.805Z,10.67
2018-07-13T22:17:40.230Z,11.50
2018-07-13T22:20:09.797Z,9.90
2018-07-13T22:22:39.536Z,10.20
2018-07-13T22:25:08.817Z,12.30
2018-07-13T22:27:38.331Z,10.20
2018-07-13T22:30:07.837Z,10.00
2018-07-13T22:32:37.267Z,16.00
2018-07-13T22:35:07.059Z,16.43
2018-07-13T22:37:36.438Z,21.40
2018-07-13T22:40:05.807Z,12.13
2018-07-13T22:42:35.410Z,18.23
2018-07-13T22:45:04.984Z,12.60
2018-07-13T22:47:34.361Z,13.87
2018-07-13T22:50:03.867Z,13.07
2018-07-13T22:52:33.241Z,17.43
2018-07-13T22:55:02.616Z,12.50
2018-07-13T22:57:31.895Z,16.83
2018-07-13T23:00:01.284Z,11.80
2018-07-13T23:02:30.492Z,12.00
2018-07-13T23:04:59.759Z,16.47
2018-07-13T23:07:29.045Z,11.03
2018-07-13T23:09:58.355Z,9.57
2018-07-13T23:12:27.808Z,11.37
2018-07-13T23:14:57.312Z,12.90
2018-07-13T23:17:26.667Z,17.30
2018-07-13T23:19:55.971Z,15.13
2018-07-13T23:22:25.387Z,9.80
2018-07-13T23:24:54.916Z,12.67
2018-07-13T23:27:24.185Z,13.03
2018-07-13T23:29:53.697Z,15.57
2018-07-13T23:32:23.083Z,11.23
2018-07-13T23:34:52.768Z,12.83
2018-07-13T23:37:22.143Z,10.40
2018-07-13T23:39:51.502Z,11.57
2018-07-13T23:42:20.867Z,12.60
2018-07-13T23:44:49.866Z,12.13
2018-07-13T23:47:19.275Z,12.40
2018-07-13T23:49:48.303Z,11.97
2018-07-13T23:52:17.583Z,26.53
2018-07-13T23:54:46.897Z,11.20
2018-07-13T23:57:16.221Z,13.30
2018-07-13T23:59:45.598Z,12.93
